createdAt,value
2018-10-19T00:02:23.627Z,15.67
2018-10-19T00:04:52.320Z,17.10
2018-10-19T00:07:21.117Z,18.63
2018-10-19T00:09:49.924Z,17.07
2018-10-19T00:12:18.596Z,15.57
2018-10-19T00:17:28.347Z,16.23
2018-10-19T00:19:57.202Z,16.40
2018-10-19T00:22:25.912Z,15.60
2018-10-19T00:24:55.014Z,18.47
2018-10-19T00:27:23.753Z,17.87
2018-10-19T00:29:55.743Z,14.93
2018-10-19T00:32:24.343Z,15.03
2018-10-19T00:34:53.128Z,14.80
2018-10-19T00:37:22.087Z,16.60
2018-10-19T00:39:50.744Z,14.97
2018-10-19T00:42:19.703Z,17.40
2018-10-19T00:44:48.383Z,16.57
2018-10-19T00:47:17.233Z,14.97
2018-10-19T00:49:45.951Z,16.63
2018-10-19T00:52:14.753Z,14.90
2018-10-19T00:54:43.456Z,16.03
2018-10-19T00:57:12.395Z,15.27
2018-10-19T00:59:41.118Z,16.20
2018-10-19T01:02:09.996Z,17.60
2018-10-19T01:04:38.667Z,14.80
2018-10-19T01:07:07.428Z,16.33
2018-10-19T01:09:36.214Z,18.93
2018-10-19T01:12:05.331Z,17.00
2018-10-19T01:14:33.900Z,17.07
2018-10-19T01:17:02.607Z,17.20
2018-10-19T01:19:31.550Z,18.83
2018-10-19T01:22:00.391Z,17.83
2018-10-19T01:24:29.077Z,17.70
2018-10-19T01:26:57.754Z,19.07
2018-10-19T01:29:26.667Z,18.40
2018-10-19T01:31:55.304Z,19.43
2018-10-19T01:34:24.065Z,19.77
2018-10-19T01:36:52.763Z,19.80
2018-10-19T01:39:21.454Z,21.60
2018-10-19T01:41:50.284Z,19.30
2018-10-19T01:44:19.058Z,20.43
2018-10-19T01:46:48.276Z,17.77
2018-10-19T01:49:17.851Z,19.00
2018-10-19T01:51:46.511Z,18.63
2018-10-19T01:54:15.203Z,16.40
2018-10-19T01:56:43.883Z,20.70
2018-10-19T01:59:12.671Z,19.83
2018-10-19T02:01:41.414Z,18.30
2018-10-19T02:04:10.433Z,18.17
2018-10-19T02:06:39.436Z,19.80
2018-10-19T02:09:08.798Z,20.30
2018-10-19T02:11:37.590Z,20.37
2018-10-19T02:14:06.288Z,19.80
2018-10-19T02:16:35.028Z,19.23
2018-10-19T02:19:03.891Z,24.17
2018-10-19T02:21:32.500Z,19.13
2018-10-19T02:24:01.039Z,20.90
2018-10-19T02:26:29.619Z,18.03
2018-10-19T02:28:58.191Z,18.43
2018-10-19T02:31:27.046Z,20.60
2018-10-19T02:33:55.690Z,20.93
2018-10-19T02:36:24.654Z,22.87
2018-10-19T02:38:53.256Z,20.87
2018-10-19T02:41:21.830Z,19.10
2018-10-19T02:43:50.619Z,19.33
2018-10-19T02:46:19.628Z,19.50
2018-10-19T02:48:48.430Z,19.37
2018-10-19T02:51:17.132Z,19.60
2018-10-19T02:53:45.980Z,19.57
2018-10-19T02:56:14.614Z,19.13
2018-10-19T02:58:43.263Z,19.23
2018-10-19T03:01:11.968Z,19.70
2018-10-19T03:03:40.626Z,20.80
2018-10-19T03:06:09.510Z,21.33
2018-10-19T03:08:38.089Z,20.33
2018-10-19T03:11:07.193Z,21.40
2018-10-19T03:13:36.110Z,22.83
2018-10-19T03:16:04.876Z,18.50
2018-10-19T03:18:33.460Z,17.10
2018-10-19T03:21:02.118Z,19.40
2018-10-19T03:23:30.962Z,19.70
2018-10-19T03:25:59.679Z,19.27
2018-10-19T03:28:28.286Z,21.57
2018-10-19T03:30:57.159Z,19.83
2018-10-19T03:33:25.880Z,19.57
2018-10-19T03:35:54.861Z,20.87
2018-10-19T03:38:23.520Z,22.20
2018-10-19T03:40:52.148Z,20.77
2018-10-19T03:43:20.916Z,20.07
2018-10-19T03:45:49.596Z,18.73
2018-10-19T03:48:18.188Z,19.10
2018-10-19T03:50:46.852Z,20.07
2018-10-19T03:53:15.412Z,20.27
2018-10-19T03:55:44.288Z,18.70
2018-10-19T03:58:12.923Z,19.80
2018-10-19T04:00:41.522Z,22.13
2018-10-19T04:03:10.157Z,19.20
2018-10-19T04:05:38.966Z,20.40
2018-10-19T04:08:07.591Z,17.57
2018-10-19T04:10:36.279Z,19.90
2018-10-19T04:13:04.823Z,17.10
2018-10-19T04:15:33.434Z,18.20
2018-10-19T04:18:02.323Z,20.60
2018-10-19T04:20:30.988Z,18.70
2018-10-19T04:23:03.974Z,19.20
2018-10-19T04:25:32.837Z,18.20
2018-10-19T04:28:02.349Z,20.10
2018-10-19T04:30:31.031Z,18.70
2018-10-19T04:35:56.556Z,18.70
2018-10-19T04:38:25.164Z,17.37
2018-10-19T04:40:53.858Z,16.30
2018-10-19T04:43:22.789Z,16.37
2018-10-19T04:45:51.465Z,18.03
2018-10-19T04:48:20.169Z,19.47
2018-10-19T04:50:48.826Z,18.30
2018-10-19T04:53:17.527Z,19.90
2018-10-19T04:55:46.271Z,18.80
2018-10-19T04:58:14.959Z,18.50
2018-10-19T05:00:43.673Z,17.20
2018-10-19T05:03:12.504Z,17.20
2018-10-19T05:05:41.249Z,17.33
2018-10-19T05:08:10.543Z,17.03
2018-10-19T05:10:40.656Z,18.40
2018-10-19T05:13:09.411Z,19.17
2018-10-19T05:15:38.367Z,19.20
2018-10-19T05:18:07.103Z,17.60
2018-10-19T05:20:35.944Z,21.67
2018-10-19T05:23:04.965Z,18.37
2018-10-19T05:25:34.091Z,17.13
2018-10-19T05:28:02.651Z,21.20
2018-10-19T05:30:31.288Z,20.70
2018-10-19T05:33:00.554Z,20.70
2018-10-19T05:35:29.448Z,20.67
2018-10-19T05:37:58.024Z,20.50
2018-10-19T05:40:27.031Z,19.17
2018-10-19T05:42:55.737Z,20.23
2018-10-19T05:45:24.329Z,21.87
2018-10-19T05:47:52.947Z,18.93
2018-10-19T05:50:21.605Z,20.53
2018-10-19T05:52:50.164Z,17.00
2018-10-19T05:55:18.828Z,19.20
2018-10-19T05:57:47.551Z,18.03
2018-10-19T06:00:16.232Z,19.87
2018-10-19T06:02:45.059Z,18.20
2018-10-19T06:05:13.767Z,18.83
2018-10-19T06:07:42.527Z,19.83
2018-10-19T06:10:11.215Z,17.77
2018-10-19T06:12:39.881Z,18.17
2018-10-19T06:15:09.052Z,17.90
2018-10-19T06:17:37.700Z,16.53
2018-10-19T06:20:07.653Z,18.00
2018-10-19T06:22:36.344Z,19.67
2018-10-19T06:25:05.069Z,20.03
2018-10-19T06:27:34.044Z,19.80
2018-10-19T06:30:02.870Z,18.47
2018-10-19T06:32:31.538Z,18.50
2018-10-19T06:35:00.287Z,18.13
2018-10-19T06:37:29.163Z,19.77
2018-10-19T06:39:57.934Z,21.13
2018-10-19T06:42:26.563Z,18.37
2018-10-19T06:44:55.190Z,20.93
2018-10-19T06:47:24.165Z,17.57
2018-10-19T06:49:54.123Z,18.73
2018-10-19T06:52:22.943Z,17.33
2018-10-19T06:54:51.511Z,18.30
2018-10-19T06:57:20.269Z,18.63
2018-10-19T06:59:48.941Z,20.87
2018-10-19T07:02:17.621Z,18.07
2018-10-19T07:04:46.410Z,17.43
2018-10-19T07:07:15.016Z,16.20
2018-10-19T07:09:43.674Z,15.63
2018-10-19T07:12:12.257Z,15.13
2018-10-19T07:14:41.822Z,16.80
2018-10-19T07:17:10.560Z,15.10
2018-10-19T07:19:39.272Z,14.90
2018-10-19T07:22:07.951Z,15.97
2018-10-19T07:24:36.659Z,16.33
2018-10-19T07:27:05.684Z,16.90
2018-10-19T07:29:34.294Z,16.00
2018-10-19T07:32:03.170Z,13.40
2018-10-19T07:34:31.936Z,14.17
2018-10-19T07:37:00.610Z,13.47
2018-10-19T07:39:29.211Z,14.93
2018-10-19T07:41:57.792Z,13.10
2018-10-19T07:44:26.860Z,15.70
2018-10-19T07:46:55.451Z,15.53
2018-10-19T07:49:24.469Z,14.90
2018-10-19T07:51:53.026Z,15.00
2018-10-19T07:54:21.862Z,15.20
2018-10-19T07:56:50.707Z,14.20
2018-10-19T07:59:19.656Z,14.23
2018-10-19T08:01:48.408Z,17.43
2018-10-19T08:04:17.292Z,15.33
2018-10-19T08:06:46.007Z,15.57
2018-10-19T08:09:14.777Z,13.37
2018-10-19T08:11:43.568Z,15.97
2018-10-19T08:14:12.456Z,14.83
2018-10-19T08:16:41.360Z,16.03
2018-10-19T08:19:10.357Z,14.37
2018-10-19T08:21:39.100Z,15.00
2018-10-19T08:24:07.872Z,13.13
2018-10-19T08:26:36.519Z,14.37
2018-10-19T08:29:05.386Z,15.37
2018-10-19T08:31:34.264Z,13.80
2018-10-19T08:34:03.063Z,13.03
2018-10-19T08:36:31.737Z,12.97
2018-10-19T08:39:00.316Z,13.73
2018-10-19T08:41:29.040Z,16.30
2018-10-19T08:43:57.702Z,14.57
2018-10-19T08:46:31.534Z,15.80
2018-10-19T08:49:00.070Z,13.30
2018-10-19T08:51:28.682Z,12.30
2018-10-19T08:53:57.193Z,13.40
2018-10-19T08:56:25.812Z,14.77
2018-10-19T08:58:54.273Z,15.23
2018-10-19T09:01:24.705Z,14.10
2018-10-19T09:03:53.209Z,12.53
2018-10-19T09:06:22.229Z,13.73
2018-10-19T09:08:50.731Z,13.10
2018-10-19T09:11:19.431Z,14.60
2018-10-19T09:13:48.030Z,14.03
2018-10-19T09:16:16.447Z,14.73
2018-10-19T09:18:44.895Z,14.77
2018-10-19T09:21:13.441Z,14.97
2018-10-19T09:23:42.032Z,14.40
2018-10-19T09:26:10.472Z,15.13
2018-10-19T09:28:38.915Z,12.80
2018-10-19T09:31:07.409Z,14.57
2018-10-19T09:33:35.876Z,15.30
2018-10-19T09:36:04.505Z,14.60
2018-10-19T09:38:33.071Z,12.87
2018-10-19T09:41:01.984Z,14.13
2018-10-19T09:43:30.610Z,12.60
2018-10-19T09:45:59.074Z,14.80
2018-10-19T09:48:27.558Z,16.07
2018-10-19T09:50:56.086Z,15.57
2018-10-19T09:53:24.690Z,13.50
2018-10-19T09:55:53.407Z,14.00
2018-10-19T09:58:21.898Z,13.57
2018-10-19T10:00:55.319Z,14.00
2018-10-19T10:03:24.055Z,11.70
2018-10-19T10:05:53.003Z,13.50
2018-10-19T10:08:21.922Z,13.27
2018-10-19T10:10:50.644Z,14.07
2018-10-19T10:13:19.223Z,13.37
2018-10-19T10:15:47.869Z,14.43
2018-10-19T10:18:16.468Z,12.33
2018-10-19T10:20:44.912Z,12.73
2018-10-19T10:23:13.620Z,12.70
2018-10-19T10:25:42.719Z,13.27
2018-10-19T10:28:11.303Z,12.37
2018-10-19T10:30:39.975Z,13.37
2018-10-19T10:33:08.563Z,12.67
2018-10-19T10:35:37.112Z,14.57
2018-10-19T10:38:06.054Z,13.57
2018-10-19T10:40:34.675Z,12.73
2018-10-19T10:43:03.348Z,13.17
2018-10-19T10:45:32.039Z,11.97
2018-10-19T10:48:00.625Z,11.93
2018-10-19T10:50:29.148Z,11.07
2018-10-19T10:52:57.606Z,10.23
2018-10-19T10:55:26.266Z,10.50
2018-10-19T10:57:54.952Z,10.10
2018-10-19T11:00:23.544Z,10.70
2018-10-19T11:02:52.130Z,9.47
2018-10-19T11:05:20.684Z,13.87
2018-10-19T11:07:49.814Z,15.70
2018-10-19T11:10:18.460Z,10.97
2018-10-19T11:12:47.109Z,9.43
2018-10-19T11:15:15.844Z,12.40
2018-10-19T11:17:44.421Z,10.70
2018-10-19T11:20:13.057Z,10.57
2018-10-19T11:22:41.531Z,10.43
2018-10-19T11:25:10.133Z,9.33
2018-10-19T11:27:38.891Z,9.20
2018-10-19T11:30:08.248Z,11.93
2018-10-19T11:32:36.884Z,13.63
2018-10-19T11:35:05.801Z,14.30
2018-10-19T11:37:34.319Z,12.67
2018-10-19T11:40:27.578Z,11.90
2018-10-19T11:42:56.715Z,11.70
2018-10-19T11:45:26.762Z,13.30
2018-10-19T11:47:55.521Z,11.43
2018-10-19T11:50:24.067Z,11.13
2018-10-19T11:52:52.504Z,10.97
2018-10-19T11:55:21.211Z,12.03
2018-10-19T11:57:50.619Z,14.00
2018-10-19T12:00:19.183Z,14.13
2018-10-19T12:02:47.702Z,13.73
2018-10-19T12:05:16.449Z,12.23
2018-10-19T12:07:45.296Z,14.20
2018-10-19T12:10:14.286Z,13.33
2018-10-19T12:12:43.468Z,13.37
2018-10-19T12:15:13.459Z,14.80
2018-10-19T12:17:42.763Z,14.00
2018-10-19T12:20:13.367Z,14.00
2018-10-19T12:22:42.069Z,15.47
2018-10-19T12:25:11.443Z,14.77
2018-10-19T12:27:40.800Z,16.20
2018-10-19T12:30:10.010Z,12.20
2018-10-19T12:32:38.683Z,10.20
2018-10-19T12:35:08.706Z,11.40
2018-10-19T12:37:37.315Z,12.80
2018-10-19T12:40:06.477Z,13.00
2018-10-19T12:42:35.291Z,13.23
2018-10-19T12:45:04.000Z,12.40
2018-10-19T12:47:38.848Z,16.63
2018-10-19T12:50:07.849Z,14.37
2018-10-19T12:52:36.650Z,13.57
2018-10-19T12:55:06.557Z,12.57
2018-10-19T12:57:35.365Z,13.73
2018-10-19T13:00:09.175Z,15.73
2018-10-19T13:02:38.224Z,12.90
2018-10-19T13:05:07.107Z,12.67
2018-10-19T13:07:36.512Z,12.33
2018-10-19T13:10:05.608Z,12.30
2018-10-19T13:12:34.213Z,13.80
2018-10-19T13:15:02.833Z,13.17
2018-10-19T13:17:32.820Z,13.00
2018-10-19T13:20:01.325Z,15.40
2018-10-19T13:22:29.965Z,16.03
2018-10-19T13:24:58.572Z,13.03
2018-10-19T13:27:27.141Z,12.10
2018-10-19T13:29:56.425Z,11.60
2018-10-19T13:32:25.428Z,11.33
2018-10-19T13:35:00.854Z,10.80
2018-10-19T13:37:29.574Z,13.10
2018-10-19T13:39:58.305Z,16.10
2018-10-19T13:42:27.239Z,11.90
2018-10-19T13:44:55.932Z,10.87
2018-10-19T13:47:25.583Z,10.77
2018-10-19T13:49:54.304Z,11.43
2018-10-19T13:52:23.303Z,9.67
2018-10-19T13:54:52.555Z,10.17
2018-10-19T13:57:21.188Z,11.30
2018-10-19T13:59:49.892Z,12.87
2018-10-19T14:02:18.572Z,11.20
2018-10-19T14:04:47.214Z,12.70
2018-10-19T14:07:16.017Z,11.10
2018-10-19T14:09:44.718Z,11.10
2018-10-19T14:12:13.452Z,11.23
2018-10-19T14:14:42.207Z,11.50
2018-10-19T14:17:11.086Z,10.83
2018-10-19T14:19:39.925Z,9.53
2018-10-19T14:22:08.559Z,11.70
2018-10-19T14:24:37.221Z,10.97
2018-10-19T14:27:06.058Z,9.93
2018-10-19T14:29:34.720Z,9.07
2018-10-19T14:32:03.375Z,8.87
2018-10-19T14:34:32.162Z,10.30
2018-10-19T14:37:00.963Z,9.50
2018-10-19T14:39:29.736Z,8.27
2018-10-19T14:44:53.664Z,11.43
2018-10-19T14:47:28.055Z,10.33
2018-10-19T14:49:57.054Z,10.50
2018-10-19T14:52:25.978Z,12.30
2018-10-19T14:54:54.975Z,11.70
2018-10-19T14:57:23.921Z,11.03
2018-10-19T14:59:52.808Z,11.57
2018-10-19T15:02:21.717Z,11.13
2018-10-19T15:04:50.715Z,12.13
2018-10-19T15:07:19.542Z,11.17
2018-10-19T15:09:48.458Z,11.67
2018-10-19T15:12:17.144Z,12.47
2018-10-19T15:14:46.114Z,11.10
2018-10-19T15:17:14.964Z,12.00
2018-10-19T15:19:43.827Z,11.33
2018-10-19T15:22:12.844Z,11.70
2018-10-19T15:24:41.920Z,10.03
2018-10-19T15:27:10.863Z,12.40
2018-10-19T15:29:39.592Z,12.20
2018-10-19T15:32:08.664Z,10.30
2018-10-19T15:34:37.901Z,11.30
2018-10-19T15:37:07.094Z,14.17
2018-10-19T15:39:35.911Z,15.03
2018-10-19T15:42:06.020Z,13.93
2018-10-19T15:44:35.092Z,12.90
2018-10-19T15:47:03.975Z,14.23
2018-10-19T15:49:33.097Z,13.67
2018-10-19T15:52:02.123Z,15.37
2018-10-19T15:54:31.149Z,14.13
2018-10-19T15:56:59.995Z,14.67
2018-10-19T15:59:29.026Z,13.37
2018-10-19T16:01:58.343Z,13.90
2018-10-19T16:04:27.243Z,14.07
2018-10-19T16:06:56.210Z,14.60
2018-10-19T16:09:25.050Z,14.37
2018-10-19T16:11:53.906Z,14.13
2018-10-19T16:14:22.944Z,16.40
2018-10-19T16:16:51.940Z,13.70
2018-10-19T16:19:20.907Z,14.87
2018-10-19T16:21:49.750Z,15.30
2018-10-19T16:24:18.563Z,14.37
2018-10-19T16:26:47.376Z,15.60
2018-10-19T16:29:16.213Z,13.93
2018-10-19T16:31:45.607Z,12.97
2018-10-19T16:34:14.389Z,13.43
2018-10-19T16:36:46.302Z,13.70
2018-10-19T16:39:15.302Z,13.03
2018-10-19T16:41:44.498Z,13.70
2018-10-19T16:44:18.157Z,14.97
2018-10-19T16:46:47.012Z,13.37
2018-10-19T16:49:16.024Z,13.70
2018-10-19T16:51:45.137Z,14.83
2018-10-19T16:54:14.079Z,16.20
2018-10-19T16:56:43.716Z,14.53
2018-10-19T16:59:12.586Z,13.50
2018-10-19T17:01:41.553Z,12.37
2018-10-19T17:04:10.470Z,13.33
2018-10-19T17:06:50.822Z,14.53
2018-10-19T17:09:19.689Z,13.60
2018-10-19T17:11:48.540Z,13.33
2018-10-19T17:14:17.507Z,14.90
2018-10-19T17:16:46.147Z,13.83
2018-10-19T17:19:14.889Z,14.00
2018-10-19T17:21:43.914Z,13.20
2018-10-19T17:24:12.734Z,14.90
2018-10-19T17:26:41.624Z,15.33
2018-10-19T17:29:10.495Z,16.20
2018-10-19T17:31:39.385Z,15.73
2018-10-19T17:34:08.170Z,12.63
2018-10-19T17:36:36.947Z,13.60
2018-10-19T17:39:08.469Z,14.13
2018-10-19T17:41:37.143Z,14.30
2018-10-19T17:44:06.727Z,15.17
2018-10-19T17:46:35.626Z,12.97
2018-10-19T17:49:04.909Z,14.03
2018-10-19T17:51:33.785Z,12.47
2018-10-19T17:54:02.604Z,13.77
2018-10-19T17:56:31.505Z,13.93
2018-10-19T17:59:00.179Z,14.33
2018-10-19T18:01:28.867Z,14.57
2018-10-19T18:03:57.692Z,13.63
2018-10-19T18:06:26.745Z,15.10
2018-10-19T18:08:55.456Z,16.20
2018-10-19T18:11:24.364Z,11.97
2018-10-19T18:13:53.250Z,16.43
2018-10-19T18:16:22.337Z,14.00
2018-10-19T18:18:51.114Z,16.50
2018-10-19T18:21:19.869Z,13.80
2018-10-19T18:23:48.780Z,15.20
2018-10-19T18:26:17.946Z,15.13
2018-10-19T18:28:46.778Z,16.33
2018-10-19T18:31:15.690Z,14.10
2018-10-19T18:33:44.423Z,14.90
2018-10-19T18:36:13.107Z,14.60
2018-10-19T18:38:42.270Z,14.60
2018-10-19T18:41:11.057Z,14.77
2018-10-19T18:43:40.024Z,16.80
2018-10-19T18:46:08.917Z,15.30
2018-10-19T18:48:37.696Z,16.10
2018-10-19T18:51:06.675Z,13.97
2018-10-19T18:53:35.525Z,14.23
2018-10-19T18:56:04.523Z,13.90
2018-10-19T18:58:33.324Z,15.87
2018-10-19T19:01:02.019Z,16.93
2018-10-19T19:03:31.051Z,16.13
2018-10-19T19:05:59.757Z,17.43
2018-10-19T19:08:28.549Z,16.20
2018-10-19T19:10:57.344Z,15.33
2018-10-19T19:13:30.541Z,15.20
2018-10-19T19:15:59.911Z,17.43
2018-10-19T19:18:28.726Z,16.33
2018-10-19T19:20:57.660Z,15.40
2018-10-19T19:23:26.435Z,16.37
2018-10-19T19:26:00.438Z,15.70
2018-10-19T19:28:29.283Z,14.97
2018-10-19T19:30:58.009Z,17.80
2018-10-19T19:33:31.953Z,17.00
2018-10-19T19:36:00.652Z,17.20
2018-10-19T19:38:29.422Z,16.30
2018-10-19T19:41:03.386Z,18.17
2018-10-19T19:43:32.352Z,15.17
2018-10-19T19:46:01.096Z,17.60
2018-10-19T19:48:35.163Z,16.57
2018-10-19T19:51:03.886Z,17.10
2018-10-19T19:53:32.579Z,16.50
2018-10-19T19:56:01.191Z,15.90
2018-10-19T19:58:29.946Z,14.20
2018-10-19T20:00:58.511Z,15.93
2018-10-19T20:03:27.081Z,15.13
2018-10-19T20:05:55.893Z,14.80
2018-10-19T20:08:24.575Z,16.97
2018-10-19T20:10:53.721Z,16.03
2018-10-19T20:13:22.871Z,16.10
2018-10-19T20:15:51.554Z,17.73
2018-10-19T20:18:20.320Z,15.70
2018-10-19T20:20:49.057Z,17.50
2018-10-19T20:23:17.689Z,16.00
2018-10-19T20:25:46.283Z,14.47
2018-10-19T20:28:14.959Z,16.13
2018-10-19T20:30:43.667Z,16.50
2018-10-19T20:33:12.565Z,14.90
2018-10-19T20:35:41.503Z,17.00
2018-10-19T20:38:10.368Z,13.63
2018-10-19T20:40:39.184Z,14.00
2018-10-19T20:43:08.261Z,16.40
2018-10-19T20:45:37.136Z,17.27
2018-10-19T20:48:06.356Z,16.73
2018-10-19T20:50:35.602Z,15.60
2018-10-19T20:53:05.172Z,15.17
2018-10-19T20:55:34.363Z,17.77
2018-10-19T20:58:03.695Z,16.00
2018-10-19T21:00:32.728Z,15.10
2018-10-19T21:08:48.698Z,14.87
2018-10-19T21:11:17.635Z,16.20
2018-10-19T21:13:46.910Z,14.93
2018-10-19T21:16:15.852Z,15.40
2018-10-19T21:18:44.923Z,17.30
2018-10-19T21:21:13.970Z,16.10
2018-10-19T21:23:43.002Z,16.53
2018-10-19T21:26:12.161Z,14.93
2018-10-19T21:28:41.113Z,14.87
2018-10-19T21:31:09.771Z,16.37
2018-10-19T21:33:38.500Z,16.33
2018-10-19T21:36:07.279Z,16.87
2018-10-19T21:38:36.229Z,16.53
2018-10-19T21:41:05.003Z,20.40
2018-10-19T21:43:33.855Z,15.40
2018-10-19T21:46:02.631Z,15.20
2018-10-19T21:48:31.398Z,16.20
2018-10-19T21:51:00.157Z,14.97
2018-10-19T21:53:28.925Z,17.00
2018-10-19T21:55:57.740Z,14.27
2018-10-19T21:58:26.582Z,14.47
2018-10-19T22:00:55.264Z,15.00
2018-10-19T22:03:24.008Z,17.20
2018-10-19T22:05:52.734Z,16.70
2018-10-19T22:08:21.479Z,15.73
2018-10-19T22:10:50.339Z,15.20
2018-10-19T22:13:19.081Z,16.13
2018-10-19T22:15:47.964Z,14.80
2018-10-19T22:18:16.745Z,16.57
2018-10-19T22:20:45.498Z,14.80
2018-10-19T22:23:14.354Z,15.20
2018-10-19T22:25:43.179Z,16.23
2018-10-19T22:28:12.149Z,15.87
2018-10-19T22:30:41.075Z,14.60
2018-10-19T22:33:09.936Z,16.70
2018-10-19T22:35:38.782Z,15.03
2018-10-19T22:38:07.643Z,16.60
2018-10-19T22:40:36.579Z,14.27
2018-10-19T22:43:05.457Z,14.60
2018-10-19T22:45:41.971Z,15.33
2018-10-19T22:48:10.849Z,17.07
2018-10-19T22:50:40.173Z,13.87
2018-10-19T22:53:09.118Z,15.17
2018-10-19T22:55:38.086Z,14.87
2018-10-19T22:58:07.059Z,15.77
2018-10-19T23:00:36.237Z,14.93
2018-10-19T23:03:04.978Z,14.60
2018-10-19T23:05:33.685Z,14.60
2018-10-19T23:08:02.330Z,13.30
2018-10-19T23:10:30.934Z,15.47
2018-10-19T23:12:59.561Z,16.43
2018-10-19T23:15:28.536Z,14.10
2018-10-19T23:17:57.279Z,17.23
2018-10-19T23:20:25.979Z,13.37
2018-10-19T23:22:54.691Z,13.70
2018-10-19T23:25:23.403Z,11.87
2018-10-19T23:27:51.965Z,12.63
2018-10-19T23:30:20.508Z,14.00
2018-10-19T23:32:49.013Z,14.03
2018-10-19T23:35:17.588Z,14.03
2018-10-19T23:37:46.180Z,13.70
2018-10-19T23:40:14.838Z,14.33
2018-10-19T23:42:43.420Z,14.00
2018-10-19T23:45:12.033Z,13.73
2018-10-19T23:47:40.616Z,13.77
2018-10-19T23:50:09.840Z,11.80
2018-10-19T23:52:38.367Z,12.80
2018-10-19T23:55:07.190Z,13.30
2018-10-19T23:57:35.847Z,12.60
